Portada
METAR-TAF:

METAR-TAF

Aeroports :

Aeroport d'Ouagadougou

Ouagadougou, Burkina Faso

latitud: 12-21N, longitud: 001-31W, altitud: 316 m

Observació

L'informe es va fer fa 30 minuts, a les 05:00 UTC
Vent 4 kt del Nord/Nord-Oest
Temperatura 23°C
Humitat 41%
Pressió 1011 hPa
Visibilitat: 8000 m

METAR: DFFD 280500Z 33004KT 8000 NSC 23/09 Q1011 NOSIG

Hora: 05:30 (05:30 UTC)

Pronòstic

L'informe es va fer fa 6 hores i 30 minuts, a les 23:00 UTC
Pronòstic vàlid del 28 a les 00 UTC al 29 a les 06 UTC
Vent 8 kt del Nord/Nord-Est
Visibilitat: 8000 m
Temporalment
l' 28 a les 06 UTC al 28 a les 10 UTC
Visibilitat: 4000 m
calitja
Temporalment
l' 28 a les 17 UTC al 28 a les 20 UTC
Visibilitat: 4000 m
calitja

TAF: DFFD 272300Z 2800/2906 02008KT 8000 NSC TEMPO 2806/2810 4000 HZ TEMPO 2817/2820 4000 HZ

Observacions i pronòstics meteorològics de més de 4000 aeroports (METAR i TAF).

Les estacions disponibles són els punts grocs i vermells al mapa.

Posi el ratolí al punt desitjat per veure el nom de l'estació.

Feu clic per veure les observacions i els pronòstics meteorològics.

Per canviar el mapa: feu clic els botons verds amb una creu de color negre per apropar; al botó verd amb un guió per allunyar la imatge; o en les fletxes verdes per a mapes adjacents.


METAR-TAF: